createdAt,value
2016-06-06T08:40:09.371Z,1014.79
2016-06-06T08:41:09.420Z,1014.86
2016-06-06T08:42:09.470Z,1014.83
2016-06-06T08:43:09.520Z,1014.87
2016-06-06T08:44:09.585Z,1014.84
2016-06-06T08:45:09.635Z,1014.87
2016-06-06T08:46:09.683Z,1014.93
2016-06-06T08:47:09.780Z,1014.89
2016-06-06T08:48:09.783Z,1014.84
2016-06-06T08:49:09.849Z,1014.87
2016-06-06T08:50:09.898Z,1014.86
2016-06-06T08:51:09.947Z,1014.82
2016-06-06T08:52:09.997Z,1014.82
2016-06-06T08:53:10.046Z,1014.82
2016-06-06T08:54:10.096Z,1014.85
2016-06-06T08:55:10.146Z,1014.84
2016-06-06T08:56:10.195Z,1014.83
2016-06-06T08:57:10.260Z,1014.83
2016-06-06T08:58:10.309Z,1014.86
2016-06-06T08:59:10.360Z,1014.85
2016-06-06T09:00:10.425Z,1014.81
2016-06-06T09:01:10.459Z,1014.86
2016-06-06T09:02:10.509Z,1014.86
2016-06-06T09:03:10.558Z,1014.8
2016-06-06T09:04:10.639Z,1014.79
2016-06-06T09:05:10.673Z,1014.81
2016-06-06T09:06:10.722Z,1014.8
2016-06-06T09:07:10.772Z,1014.8
2016-06-06T09:08:10.821Z,1014.74
2016-06-06T09:09:10.903Z,1014.76
2016-06-06T09:10:10.936Z,1014.73
2016-06-06T09:11:10.986Z,1014.76
2016-06-06T09:12:11.036Z,1014.76
2016-06-06T09:13:11.085Z,1014.77
2016-06-06T09:14:11.134Z,1014.76
2016-06-06T09:15:11.183Z,1014.73
2016-06-06T09:16:11.249Z,1014.79
2016-06-06T09:17:11.299Z,1014.74
2016-06-06T09:18:11.364Z,1014.78
2016-06-06T09:19:11.413Z,1014.79
2016-06-06T09:20:11.447Z,1014.8
2016-06-06T09:21:11.513Z,1014.78
2016-06-06T09:22:11.562Z,1014.82
2016-06-06T09:23:11.612Z,1014.78
2016-06-06T09:24:11.661Z,1014.79
2016-06-06T09:25:11.710Z,1014.83
2016-06-06T09:26:11.760Z,1014.78
2016-06-06T09:27:11.826Z,1014.82
2016-06-06T09:28:11.876Z,1014.86
2016-06-06T09:29:11.940Z,1014.86
2016-06-06T09:30:11.974Z,1014.79
2016-06-06T09:31:12.023Z,1014.8
2016-06-06T09:32:12.073Z,1014.82
2016-06-06T09:33:12.123Z,1014.85
2016-06-06T09:34:12.173Z,1014.82
2016-06-06T09:35:12.238Z,1014.85
2016-06-06T09:36:12.287Z,1014.85
2016-06-06T09:37:12.337Z,1014.88
2016-06-06T09:38:12.386Z,1014.85
2016-06-06T09:39:12.451Z,1014.9
2016-06-06T09:40:12.501Z,1014.9
2016-06-06T09:41:12.551Z,1014.87
2016-06-06T09:42:12.600Z,1014.91
2016-06-06T09:43:12.650Z,1014.9
2016-06-06T09:44:12.730Z,1014.84
2016-06-06T09:45:12.750Z,1014.84
2016-06-06T09:46:12.814Z,1014.88
2016-06-06T09:47:12.927Z,1014.84
2016-06-06T09:48:12.913Z,1014.86
2016-06-06T09:49:12.963Z,1014.86
2016-06-06T09:50:13.027Z,1014.85
2016-06-06T09:51:13.077Z,1014.84
2016-06-06T09:52:13.127Z,1014.86
2016-06-06T09:53:13.177Z,1014.87
2016-06-06T09:54:13.227Z,1014.86
2016-06-06T09:55:13.276Z,1014.82
2016-06-06T09:56:13.341Z,1014.84
2016-06-06T09:57:13.391Z,1014.86
2016-06-06T09:58:13.440Z,1014.86
2016-06-06T09:59:13.521Z,1014.8
2016-06-06T10:00:13.540Z,1014.82
2016-06-06T10:01:13.605Z,1014.78
2016-06-06T10:02:13.654Z,1014.78
2016-06-06T10:03:13.704Z,1014.75
2016-06-06T10:04:13.753Z,1014.79
2016-06-06T10:05:13.818Z,1014.78
2016-06-06T10:06:13.884Z,1014.75
2016-06-06T10:07:13.918Z,1014.75
2016-06-06T10:08:13.983Z,1014.77
2016-06-06T10:09:14.032Z,1014.76
2016-06-06T10:10:14.081Z,1014.67
2016-06-06T10:11:14.132Z,1014.71
2016-06-06T10:12:14.181Z,1014.75
2016-06-06T10:13:14.246Z,1014.78
2016-06-06T10:14:14.296Z,1014.76
2016-06-06T10:15:14.345Z,1014.76
2016-06-06T10:16:14.395Z,1014.75
2016-06-06T10:17:14.444Z,1014.72
2016-06-06T10:18:14.510Z,1014.75
2016-06-06T10:19:14.559Z,1014.72
2016-06-06T10:20:14.609Z,1014.73
2016-06-06T10:21:14.658Z,1014.72
2016-06-06T10:22:14.724Z,1014.69
2016-06-06T10:23:14.774Z,1014.7
2016-06-06T10:24:14.822Z,1014.7
2016-06-06T10:25:14.888Z,1014.66
2016-06-06T10:26:14.938Z,1014.69
2016-06-06T10:27:14.987Z,1014.73
2016-06-06T10:28:15.051Z,1014.72
2016-06-06T10:29:15.102Z,1014.69
2016-06-06T10:30:15.151Z,1014.69
2016-06-06T10:31:15.216Z,1014.66
2016-06-06T10:32:15.250Z,1014.67
2016-06-06T10:33:15.315Z,1014.62
2016-06-06T10:34:15.365Z,1014.63
2016-06-06T10:35:15.415Z,1014.58
2016-06-06T10:36:15.479Z,1014.6
2016-06-06T10:37:15.529Z,1014.58
2016-06-06T10:38:15.594Z,1014.58
2016-06-06T10:39:15.645Z,1014.58
2016-06-06T10:40:15.694Z,1014.6
2016-06-06T10:41:15.743Z,1014.62
2016-06-06T10:42:15.808Z,1014.58
2016-06-06T10:43:15.858Z,1014.59
2016-06-06T10:44:15.908Z,1014.56
2016-06-06T10:45:15.973Z,1014.59
2016-06-06T10:46:16.022Z,1014.56
2016-06-06T10:47:16.119Z,1014.57
2016-06-06T10:48:16.137Z,1014.59
2016-06-06T10:49:16.202Z,1014.58
2016-06-06T10:50:16.236Z,1014.55
2016-06-06T10:51:16.302Z,1014.49
2016-06-06T10:52:16.352Z,1014.51
2016-06-06T10:53:16.416Z,1014.48
2016-06-06T10:54:16.466Z,1014.51
2016-06-06T10:55:16.516Z,1014.5
2016-06-06T10:56:16.580Z,1014.5
2016-06-06T10:57:16.630Z,1014.48
2016-06-06T10:58:16.679Z,1014.45
2016-06-06T10:59:16.745Z,1014.44
2016-06-06T11:00:16.794Z,1014.49
2016-06-06T11:01:16.860Z,1014.48
2016-06-06T11:02:16.909Z,1014.47
2016-06-06T11:03:16.959Z,1014.43
2016-06-06T11:04:17.024Z,1014.42
2016-06-06T11:05:17.074Z,1014.42
2016-06-06T11:06:17.124Z,1014.44
2016-06-06T11:07:17.204Z,1014.48
2016-06-06T11:08:17.253Z,1014.43
2016-06-06T11:09:17.287Z,1014.41
2016-06-06T11:10:17.353Z,1014.43
2016-06-06T11:11:17.418Z,1014.45
2016-06-06T11:12:17.467Z,1014.41
2016-06-06T11:13:17.517Z,1014.46
2016-06-06T11:14:17.582Z,1014.46
2016-06-06T11:15:17.631Z,1014.47
2016-06-06T11:16:17.697Z,1014.4
2016-06-06T11:17:17.746Z,1014.42
2016-06-06T11:18:17.797Z,1014.42
2016-06-06T11:19:17.861Z,1014.43
2016-06-06T11:20:17.911Z,1014.41
2016-06-06T11:21:17.976Z,1014.42
2016-06-06T11:22:18.025Z,1014.4
2016-06-06T11:23:18.091Z,1014.4
2016-06-06T11:24:18.141Z,1014.38
2016-06-06T11:25:18.190Z,1014.37
2016-06-06T11:26:18.255Z,1014.4
2016-06-06T11:27:18.305Z,1014.4
2016-06-06T11:28:18.369Z,1014.38
2016-06-06T11:29:18.607Z,1014.43
2016-06-06T11:30:18.469Z,1014.42
2016-06-06T11:31:18.534Z,1014.42
2016-06-06T11:32:18.584Z,1014.35
2016-06-06T11:33:18.649Z,1014.42
2016-06-06T11:34:18.714Z,1014.46
2016-06-06T11:35:18.763Z,1014.43
2016-06-06T11:36:18.813Z,1014.41
2016-06-06T11:37:18.879Z,1014.38
2016-06-06T11:38:18.928Z,1014.39
2016-06-06T11:39:18.993Z,1014.38
2016-06-06T11:40:19.042Z,1014.42
2016-06-06T11:41:19.108Z,1014.42
2016-06-06T11:42:19.157Z,1014.41
2016-06-06T11:43:19.223Z,1014.38
2016-06-06T11:44:19.584Z,1014.36
2016-06-06T11:45:20.259Z,1014.39
2016-06-06T11:46:19.387Z,1014.37
2016-06-06T11:47:19.499Z,1014.36
2016-06-06T11:48:19.502Z,1014.36
2016-06-06T11:49:19.567Z,1014.32
2016-06-06T11:50:19.617Z,1014.33
2016-06-06T11:51:19.681Z,1014.35
2016-06-06T11:52:19.731Z,1014.29
2016-06-06T11:53:19.797Z,1014.26
2016-06-06T11:54:19.861Z,1014.24
2016-06-06T11:55:19.911Z,1014.25
2016-06-06T11:56:19.961Z,1014.2
2016-06-06T11:57:20.026Z,1014.25
2016-06-06T11:58:20.091Z,1014.23
2016-06-06T11:59:20.734Z,1014.2
2016-06-06T12:00:20.206Z,1014.21
2016-06-06T12:01:20.271Z,1014.18
2016-06-06T12:02:20.320Z,1014.18
2016-06-06T12:03:20.386Z,1014.18
2016-06-06T12:04:20.436Z,1014.12
2016-06-06T12:05:20.501Z,1014.17
2016-06-06T12:06:20.565Z,1014.13
2016-06-06T12:07:20.632Z,1014.12
2016-06-06T12:08:20.681Z,1014.13
2016-06-06T12:09:20.745Z,1014.12
2016-06-06T12:10:20.812Z,1014.19
2016-06-06T12:11:20.860Z,1014.15
2016-06-06T12:12:20.926Z,1014.12
2016-06-06T12:13:20.991Z,1014.12
2016-06-06T12:14:21.040Z,1014.06
2016-06-06T12:15:21.106Z,1014.12
2016-06-06T12:16:21.171Z,1014.09
2016-06-06T12:17:21.220Z,1014.11
2016-06-06T12:18:21.286Z,1014.13
2016-06-06T12:19:21.351Z,1014.08
2016-06-06T12:20:21.400Z,1014.07
2016-06-06T12:21:21.466Z,1014.06
2016-06-06T12:22:21.531Z,1014.05
2016-06-06T12:23:21.596Z,1014.05
2016-06-06T12:24:21.661Z,1014.06
2016-06-06T12:25:21.726Z,1014.04
2016-06-06T12:26:21.775Z,1014.05
2016-06-06T12:27:21.841Z,1013.98
2016-06-06T12:28:21.905Z,1013.97
2016-06-06T12:29:21.955Z,1013.96
2016-06-06T12:30:22.099Z,1014
2016-06-06T12:31:22.102Z,1013.97
2016-06-06T12:32:22.136Z,1013.9
2016-06-06T12:33:22.201Z,1013.89
2016-06-06T12:34:22.265Z,1013.84
2016-06-06T12:35:22.332Z,1013.84
2016-06-06T12:36:22.396Z,1013.86
2016-06-06T12:37:22.462Z,1013.85
2016-06-06T12:38:22.511Z,1013.8
2016-06-06T12:39:22.576Z,1013.83
2016-06-06T12:40:22.642Z,1013.82
2016-06-06T12:41:22.707Z,1013.81
2016-06-06T12:42:22.772Z,1013.81
2016-06-06T12:43:22.838Z,1013.83
2016-06-06T12:44:22.903Z,1013.85
2016-06-06T12:45:22.967Z,1013.8
2016-06-06T12:46:23.017Z,1013.85
2016-06-06T12:47:23.145Z,1013.87
2016-06-06T12:48:23.148Z,1013.86
2016-06-06T12:49:23.212Z,1013.95
2016-06-06T12:50:23.278Z,1013.93
2016-06-06T12:51:23.343Z,1013.91
2016-06-06T12:52:23.392Z,1013.98
2016-06-06T12:53:23.473Z,1014.01
2016-06-06T12:54:23.523Z,1014.04
2016-06-06T12:55:23.589Z,1014.03
2016-06-06T12:56:23.653Z,1014
2016-06-06T12:57:23.718Z,1014.01
2016-06-06T12:58:23.783Z,1014.04
2016-06-06T12:59:23.849Z,1014.04
2016-06-06T13:00:23.914Z,1014.04
2016-06-06T13:01:23.980Z,1014.07
2016-06-06T13:02:24.029Z,1014.08
2016-06-06T13:03:24.094Z,1014.06
2016-06-06T13:04:24.159Z,1014.02
2016-06-06T13:05:24.225Z,1014.05
2016-06-06T13:06:24.290Z,1014.06
2016-06-06T13:07:24.354Z,1014.07
2016-06-06T13:08:24.421Z,1014.15
2016-06-06T13:09:24.485Z,1014.11
2016-06-06T13:10:24.551Z,1014.12
2016-06-06T13:11:24.615Z,1014.09
2016-06-06T13:12:24.681Z,1014.09
2016-06-06T13:13:24.731Z,1014.11
2016-06-06T13:14:24.999Z,1014.1
2016-06-06T13:15:24.876Z,1014.09
2016-06-06T13:16:24.926Z,1014.13
2016-06-06T13:17:24.991Z,1014.13
2016-06-06T13:18:25.056Z,1014.16
2016-06-06T13:19:25.122Z,1014.13
2016-06-06T13:20:25.187Z,1014.09
2016-06-06T13:21:25.267Z,1014.1
2016-06-06T13:22:25.317Z,1014.11
2016-06-06T13:23:25.383Z,1014.11
2016-06-06T13:24:25.447Z,1014.12
2016-06-06T13:25:25.528Z,1014.1
2016-06-06T13:26:25.578Z,1014.08
2016-06-06T13:27:25.643Z,1014.09
2016-06-06T13:28:25.708Z,1014.07
2016-06-06T13:29:25.789Z,1014.04
2016-06-06T13:30:25.838Z,1014.11
2016-06-06T13:31:25.919Z,1014.07
2016-06-06T13:32:25.985Z,1014.09
2016-06-06T13:33:26.049Z,1014.07
2016-06-06T13:34:26.115Z,1014.09
2016-06-06T13:35:26.180Z,1014.13
2016-06-06T13:36:26.246Z,1014.06
2016-06-06T13:37:26.310Z,1014.1
2016-06-06T13:38:26.376Z,1014.11
2016-06-06T13:39:26.441Z,1014.09
2016-06-06T13:40:26.506Z,1014.04
2016-06-06T13:41:26.571Z,1014.08
2016-06-06T13:42:26.636Z,1014.05
2016-06-06T13:43:26.702Z,1014
2016-06-06T13:44:26.768Z,1014.09
2016-06-06T13:45:26.832Z,1014.06
2016-06-06T13:46:26.897Z,1014.06
2016-06-06T13:47:27.026Z,1014.06
2016-06-06T13:48:27.043Z,1014.07
2016-06-06T13:49:27.108Z,1014.07
2016-06-06T13:50:27.173Z,1014.01
2016-06-06T13:51:27.239Z,1014.05
2016-06-06T13:52:27.304Z,1014.05
2016-06-06T13:53:27.369Z,1014.03
2016-06-06T13:54:27.434Z,1014.06
2016-06-06T13:55:27.500Z,1013.99
2016-06-06T13:56:27.580Z,1014
2016-06-06T13:57:27.645Z,1014.01
2016-06-06T13:58:27.710Z,1014.07
2016-06-06T13:59:27.775Z,1014.02
2016-06-06T14:00:27.841Z,1014.11
2016-06-06T14:01:27.922Z,1014.04
2016-06-06T14:02:27.972Z,1014.03
2016-06-06T14:03:28.036Z,1014.08
2016-06-06T14:04:28.102Z,1014.07
2016-06-06T14:05:28.167Z,1014.03
2016-06-06T14:06:28.249Z,1014.05
2016-06-06T14:07:28.297Z,1013.99
2016-06-06T14:08:28.379Z,1013.95
2016-06-06T14:09:28.443Z,1013.94
2016-06-06T14:10:28.509Z,1013.97
2016-06-06T14:11:28.574Z,1013.97
2016-06-06T14:12:28.640Z,1014.01
2016-06-06T14:13:28.704Z,1013.96
2016-06-06T14:14:28.785Z,1013.98
2016-06-06T14:15:28.851Z,1014
2016-06-06T14:16:28.916Z,1014.03
2016-06-06T14:17:28.981Z,1013.98
2016-06-06T14:18:29.045Z,1013.97
2016-06-06T14:19:29.111Z,1013.97
2016-06-06T14:20:29.176Z,1013.96
2016-06-06T14:21:29.256Z,1013.91
2016-06-06T14:22:29.322Z,1013.89
2016-06-06T14:23:29.387Z,1013.87
2016-06-06T14:24:29.453Z,1013.84
2016-06-06T14:25:29.550Z,1013.88
2016-06-06T14:26:29.598Z,1013.82
2016-06-06T14:27:29.647Z,1013.84
2016-06-06T14:28:29.729Z,1013.87
2016-06-06T14:29:29.794Z,1013.89
2016-06-06T14:30:29.858Z,1013.95
2016-06-06T14:31:29.925Z,1013.91
2016-06-06T14:32:29.989Z,1013.94
2016-06-06T14:33:30.055Z,1013.9
2016-06-06T14:34:30.135Z,1013.85
2016-06-06T14:35:30.216Z,1013.87
2016-06-06T14:36:30.250Z,1013.84
2016-06-06T14:37:30.332Z,1013.85
2016-06-06T14:38:30.396Z,1013.86
2016-06-06T14:39:30.463Z,1013.84
2016-06-06T14:40:30.527Z,1013.82
2016-06-06T14:41:30.607Z,1013.82
2016-06-06T14:42:30.657Z,1013.84
2016-06-06T14:43:30.723Z,1013.88
2016-06-06T14:44:31.538Z,1013.84
2016-06-06T14:45:31.462Z,1013.81
2016-06-06T14:46:30.918Z,1013.8
2016-06-06T14:47:31.045Z,1013.85
2016-06-06T14:48:31.049Z,1013.84
2016-06-06T14:49:31.114Z,1013.85
2016-06-06T14:50:31.178Z,1013.82
2016-06-06T14:51:31.244Z,1013.82
2016-06-06T14:52:31.309Z,1013.81
2016-06-06T14:53:31.374Z,1013.79
2016-06-06T14:54:31.455Z,1013.79
2016-06-06T14:55:31.505Z,1013.76
2016-06-06T14:56:31.570Z,1013.77
2016-06-06T14:57:31.635Z,1013.72
2016-06-06T14:58:31.701Z,1013.81
2016-06-06T14:59:31.781Z,1013.79
2016-06-06T15:00:32.097Z,1013.8
2016-06-06T15:01:33.302Z,1013.82
2016-06-06T15:02:31.961Z,1013.82
2016-06-06T15:03:32.027Z,1013.77
2016-06-06T15:04:32.107Z,1013.76
2016-06-06T15:05:32.157Z,1013.74
2016-06-06T15:06:32.222Z,1013.69
2016-06-06T15:07:32.287Z,1013.72
2016-06-06T15:08:32.353Z,1013.7
2016-06-06T15:09:32.418Z,1013.67
2016-06-06T15:10:32.466Z,1013.68
2016-06-06T15:11:32.548Z,1013.77
2016-06-06T15:12:32.613Z,1013.74
2016-06-06T15:13:32.678Z,1013.72
2016-06-06T15:14:32.727Z,1013.67
2016-06-06T15:15:32.793Z,1013.73
2016-06-06T15:16:32.857Z,1013.73
2016-06-06T15:17:32.923Z,1013.7
2016-06-06T15:18:32.988Z,1013.76
2016-06-06T15:19:33.054Z,1013.72
2016-06-06T15:20:33.104Z,1013.7
2016-06-06T15:21:33.168Z,1013.73
2016-06-06T15:22:33.234Z,1013.74
2016-06-06T15:23:33.299Z,1013.73
2016-06-06T15:24:33.365Z,1013.67
2016-06-06T15:25:33.429Z,1013.71
2016-06-06T15:26:33.478Z,1013.7
2016-06-06T15:27:33.544Z,1013.71
2016-06-06T15:28:33.594Z,1013.71
2016-06-06T15:29:33.659Z,1013.67
2016-06-06T15:30:33.725Z,1013.69
2016-06-06T15:31:33.789Z,1013.66
2016-06-06T15:32:33.855Z,1013.69
2016-06-06T15:33:33.903Z,1013.68
2016-06-06T15:34:33.970Z,1013.65
2016-06-06T15:35:34.034Z,1013.69
2016-06-06T15:36:34.084Z,1013.62
2016-06-06T15:37:34.149Z,1013.62
2016-06-06T15:38:34.214Z,1013.61
2016-06-06T15:39:34.280Z,1013.67
2016-06-06T15:40:34.329Z,1013.63
2016-06-06T15:41:34.394Z,1013.61
2016-06-06T15:42:34.443Z,1013.59
2016-06-06T15:43:34.509Z,1013.62
2016-06-06T15:44:34.574Z,1013.58
2016-06-06T15:45:34.921Z,1013.55
2016-06-06T15:46:34.689Z,1013.56
2016-06-06T15:47:34.801Z,1013.53
2016-06-06T15:48:34.804Z,1013.53
2016-06-06T15:49:34.869Z,1013.52
2016-06-06T15:50:34.919Z,1013.51
2016-06-06T15:51:34.984Z,1013.45
2016-06-06T15:52:35.049Z,1013.47
2016-06-06T15:53:35.114Z,1013.45
2016-06-06T15:54:35.164Z,1013.45
2016-06-06T15:55:35.229Z,1013.46
2016-06-06T15:56:35.278Z,1013.41
2016-06-06T15:57:35.343Z,1013.36
2016-06-06T15:58:35.409Z,1013.36
2016-06-06T15:59:36.006Z,1013.33
2016-06-06T16:00:35.523Z,1013.33
2016-06-06T16:01:35.573Z,1013.31
2016-06-06T16:02:35.639Z,1013.32
2016-06-06T16:03:35.688Z,1013.3
2016-06-06T16:04:35.753Z,1013.3
2016-06-06T16:05:35.803Z,1013.27
2016-06-06T16:06:35.867Z,1013.3
2016-06-06T16:07:35.933Z,1013.32
2016-06-06T16:08:35.983Z,1013.29
2016-06-06T16:09:36.033Z,1013.28
2016-06-06T16:10:36.097Z,1013.26
2016-06-06T16:11:36.163Z,1013.29
2016-06-06T16:12:36.213Z,1013.27
2016-06-06T16:13:36.278Z,1013.33
2016-06-06T16:14:36.608Z,1013.31
2016-06-06T16:15:36.674Z,1013.36
2016-06-06T16:16:36.441Z,1013.32
2016-06-06T16:17:36.507Z,1013.34
2016-06-06T16:18:36.557Z,1013.31
2016-06-06T16:19:36.622Z,1013.41
2016-06-06T16:20:36.671Z,1013.39
2016-06-06T16:21:36.752Z,1013.38
2016-06-06T16:22:36.802Z,1013.34
2016-06-06T16:23:36.851Z,1013.33
2016-06-06T16:24:36.916Z,1013.38
2016-06-06T16:25:36.966Z,1013.37
2016-06-06T16:26:37.031Z,1013.42
2016-06-06T16:27:37.096Z,1013.39
2016-06-06T16:28:37.146Z,1013.39
2016-06-06T16:29:37.211Z,1013.36
2016-06-06T16:30:37.261Z,1013.45
2016-06-06T16:31:37.326Z,1013.47
2016-06-06T16:32:37.375Z,1013.43
2016-06-06T16:33:37.440Z,1013.49
2016-06-06T16:34:37.506Z,1013.47
2016-06-06T16:35:37.556Z,1013.45
2016-06-06T16:36:37.620Z,1013.48
2016-06-06T16:37:37.670Z,1013.47
2016-06-06T16:38:37.736Z,1013.48
2016-06-06T16:39:37.800Z,1013.47
2016-06-06T16:40:37.866Z,1013.47
2016-06-06T16:41:37.916Z,1013.49
2016-06-06T16:42:37.969Z,1013.49
2016-06-06T16:43:38.040Z,1013.48
2016-06-06T16:44:38.109Z,1013.49
2016-06-06T16:45:38.164Z,1013.45
2016-06-06T16:46:38.250Z,1013.49
2016-06-06T16:47:38.334Z,1013.49
2016-06-06T16:48:38.353Z,1013.52
2016-06-06T16:49:38.419Z,1013.54
2016-06-06T16:50:38.471Z,1013.54
2016-06-06T16:51:38.537Z,1013.53
2016-06-06T16:52:38.604Z,1013.54
2016-06-06T16:53:38.653Z,1013.48
2016-06-06T16:54:38.720Z,1013.52
2016-06-06T16:55:38.770Z,1013.49
2016-06-06T16:56:38.836Z,1013.5
2016-06-06T16:57:38.886Z,1013.46
2016-06-06T16:58:38.951Z,1013.48
2016-06-06T16:59:39.017Z,1013.47
2016-06-06T17:00:39.067Z,1013.47
2016-06-06T17:01:39.117Z,1013.44
2016-06-06T17:02:39.182Z,1013.47
2016-06-06T17:03:39.247Z,1013.42
2016-06-06T17:04:39.312Z,1013.4
2016-06-06T17:05:39.361Z,1013.45
2016-06-06T17:06:39.412Z,1013.44
2016-06-06T17:07:39.477Z,1013.4
2016-06-06T17:08:39.542Z,1013.38
2016-06-06T17:09:39.608Z,1013.41
2016-06-06T17:10:39.657Z,1013.41
2016-06-06T17:11:39.706Z,1013.39
2016-06-06T17:12:39.772Z,1013.36
2016-06-06T17:13:39.821Z,1013.36
2016-06-06T17:14:39.886Z,1013.39
2016-06-06T17:15:40.842Z,1013.37
2016-06-06T17:16:40.001Z,1013.37
2016-06-06T17:17:40.066Z,1013.36
2016-06-06T17:18:40.116Z,1013.36
2016-06-06T17:19:40.181Z,1013.33
2016-06-06T17:20:40.230Z,1013.38
2016-06-06T17:21:40.296Z,1013.33
2016-06-06T17:22:40.346Z,1013.34
2016-06-06T17:23:40.410Z,1013.33
2016-06-06T17:24:40.460Z,1013.3
2016-06-06T17:25:40.525Z,1013.28
2016-06-06T17:26:40.575Z,1013.31
2016-06-06T17:27:40.640Z,1013.23
2016-06-06T17:28:40.689Z,1013.26
2016-06-06T17:29:40.755Z,1013.27
2016-06-06T17:30:40.804Z,1013.24
2016-06-06T17:31:40.869Z,1013.21
2016-06-06T17:32:40.935Z,1013.23
2016-06-06T17:33:40.984Z,1013.2
2016-06-06T17:34:41.049Z,1013.25
2016-06-06T17:35:41.114Z,1013.18
2016-06-06T17:36:41.164Z,1013.2
2016-06-06T17:37:41.229Z,1013.17
2016-06-06T17:38:41.279Z,1013.14
2016-06-06T17:39:41.344Z,1013.16
2016-06-06T17:40:41.393Z,1013.11
2016-06-06T17:41:41.459Z,1013.18
2016-06-06T17:42:41.508Z,1013.19
2016-06-06T17:43:41.574Z,1013.14
2016-06-06T17:44:41.623Z,1013.15
2016-06-06T17:45:41.689Z,1013.13
2016-06-06T17:46:41.738Z,1013.15
2016-06-06T17:47:41.849Z,1013.13
2016-06-06T17:48:41.853Z,1013.15
2016-06-06T17:49:41.918Z,1013.15
2016-06-06T17:50:41.967Z,1013.2
2016-06-06T17:51:42.032Z,1013.22
2016-06-06T17:52:42.082Z,1013.2
2016-06-06T17:53:42.148Z,1013.18
2016-06-06T17:54:42.196Z,1013.22
2016-06-06T17:55:42.262Z,1013.21
2016-06-06T17:56:42.312Z,1013.26
2016-06-06T17:57:42.361Z,1013.25
2016-06-06T17:58:42.426Z,1013.25
2016-06-06T17:59:43.257Z,1013.28
2016-06-06T18:00:42.526Z,1013.26
2016-06-06T18:01:42.590Z,1013.28
2016-06-06T18:02:42.656Z,1013.31
2016-06-06T18:03:42.706Z,1013.32
2016-06-06T18:04:42.755Z,1013.32
2016-06-06T18:05:42.820Z,1013.31
2016-06-06T18:06:42.870Z,1013.33
2016-06-06T18:07:42.919Z,1013.34
2016-06-06T18:08:42.984Z,1013.35
2016-06-06T18:09:43.034Z,1013.33
2016-06-06T18:10:43.099Z,1013.35
2016-06-06T18:11:43.149Z,1013.37
2016-06-06T18:12:43.214Z,1013.41
2016-06-06T18:13:43.280Z,1013.45
2016-06-06T18:14:43.438Z,1013.41
2016-06-06T18:15:43.378Z,1013.4
2016-06-06T18:16:43.428Z,1013.38
2016-06-06T18:17:43.493Z,1013.42
2016-06-06T18:18:43.543Z,1013.42
2016-06-06T18:19:43.608Z,1013.44
2016-06-06T18:20:43.658Z,1013.44
2016-06-06T18:21:43.707Z,1013.45
2016-06-06T18:22:43.757Z,1013.45
2016-06-06T18:23:43.821Z,1013.47
2016-06-06T18:24:43.872Z,1013.46
2016-06-06T18:25:43.936Z,1013.5
2016-06-06T18:26:43.986Z,1013.49
2016-06-06T18:27:44.035Z,1013.51
2016-06-06T18:28:44.101Z,1013.52
2016-06-06T18:29:44.634Z,1013.53
2016-06-06T18:30:44.263Z,1013.49
2016-06-06T18:31:44.265Z,1013.53
2016-06-06T18:32:44.314Z,1013.51
2016-06-06T18:33:44.364Z,1013.53
2016-06-06T18:34:44.445Z,1013.51
2016-06-06T18:35:44.495Z,1013.54
2016-06-06T18:36:44.528Z,1013.48
2016-06-06T18:37:44.594Z,1013.49
2016-06-06T18:38:44.659Z,1013.51
2016-06-06T18:39:44.692Z,1013.54
2016-06-06T18:40:44.758Z,1013.58
2016-06-06T18:41:44.808Z,1013.57
2016-06-06T18:42:44.857Z,1013.57
2016-06-06T18:43:44.923Z,1013.57
2016-06-06T18:44:45.488Z,1013.53
2016-06-06T18:45:45.038Z,1013.59
2016-06-06T18:46:45.086Z,1013.59
2016-06-06T18:47:45.183Z,1013.57
2016-06-06T18:48:45.202Z,1013.57
2016-06-06T18:49:45.251Z,1013.61
2016-06-06T18:50:45.301Z,1013.6
2016-06-06T18:51:45.366Z,1013.58
2016-06-06T18:52:45.416Z,1013.62
2016-06-06T18:53:45.465Z,1013.65
2016-06-06T18:54:45.529Z,1013.63
2016-06-06T18:55:45.580Z,1013.63
2016-06-06T18:56:45.629Z,1013.63
2016-06-06T18:57:45.695Z,1013.65
2016-06-06T18:58:45.744Z,1013.64
2016-06-06T18:59:46.075Z,1013.64
2016-06-06T19:00:45.842Z,1013.64
2016-06-06T19:01:45.908Z,1013.65
2016-06-06T19:02:45.958Z,1013.64
2016-06-06T19:03:46.023Z,1013.67
2016-06-06T19:04:46.056Z,1013.65
2016-06-06T19:05:46.122Z,1013.67
2016-06-06T19:06:46.172Z,1013.68
2016-06-06T19:07:46.222Z,1013.67
2016-06-06T19:08:46.286Z,1013.68
2016-06-06T19:09:46.336Z,1013.7
2016-06-06T19:10:46.386Z,1013.75
2016-06-06T19:11:46.436Z,1013.73
2016-06-06T19:12:46.485Z,1013.73
2016-06-06T19:13:46.550Z,1013.76
2016-06-06T19:14:46.599Z,1013.75
2016-06-06T19:15:46.650Z,1013.76
2016-06-06T19:16:47.042Z,1013.71
2016-06-06T19:17:47.045Z,1013.71
2016-06-06T19:18:46.813Z,1013.69
2016-06-06T19:19:46.863Z,1013.76
2016-06-06T19:20:46.913Z,1013.77
2016-06-06T19:21:46.978Z,1013.77
2016-06-06T19:22:47.027Z,1013.81
2016-06-06T19:23:47.077Z,1013.78
2016-06-06T19:24:47.126Z,1013.79
2016-06-06T19:25:47.191Z,1013.83
2016-06-06T19:26:47.241Z,1013.81
2016-06-06T19:27:47.290Z,1013.78
2016-06-06T19:28:47.340Z,1013.83
2016-06-06T19:29:47.406Z,1013.84
2016-06-06T19:30:47.455Z,1013.8
2016-06-06T19:31:47.504Z,1013.82
2016-06-06T19:32:47.554Z,1013.81
2016-06-06T19:33:47.604Z,1013.83
2016-06-06T19:34:48.434Z,1013.83
2016-06-06T19:35:48.109Z,1013.85
2016-06-06T19:36:47.768Z,1013.85
2016-06-06T19:37:47.818Z,1013.89
2016-06-06T19:38:47.867Z,1013.88
2016-06-06T19:39:47.933Z,1013.84
2016-06-06T19:40:47.982Z,1013.85
2016-06-06T19:41:48.031Z,1013.87
2016-06-06T19:42:48.081Z,1013.89
2016-06-06T19:43:48.131Z,1013.87
2016-06-06T19:44:48.180Z,1013.89
2016-06-06T19:45:48.245Z,1013.9
2016-06-06T19:46:48.295Z,1013.95
2016-06-06T19:47:48.391Z,1013.95
2016-06-06T19:48:48.394Z,1013.99
2016-06-06T19:49:48.459Z,1014.01
2016-06-06T19:50:48.508Z,1013.99
2016-06-06T19:51:48.558Z,1014.04
2016-06-06T19:52:48.608Z,1014.04
2016-06-06T19:53:48.657Z,1014.05
2016-06-06T19:54:48.723Z,1014.02
2016-06-06T19:55:48.772Z,1014.06
2016-06-06T19:56:48.822Z,1014.02
2016-06-06T19:57:48.871Z,1014.04
2016-06-06T19:58:48.937Z,1014.04
2016-06-06T19:59:48.986Z,1014.05
2016-06-06T20:00:49.035Z,1014.02
2016-06-06T20:01:49.085Z,1014.08
2016-06-06T20:02:49.134Z,1014.04
2016-06-06T20:03:49.184Z,1014.04
2016-06-06T20:04:50.141Z,1014.06
2016-06-06T20:05:49.298Z,1014.06
2016-06-06T20:06:49.349Z,1014.08
2016-06-06T20:07:49.398Z,1014.1
2016-06-06T20:08:49.448Z,1014.12
2016-06-06T20:09:49.497Z,1014.09
2016-06-06T20:10:49.562Z,1014.08
2016-06-06T20:11:49.612Z,1014.1
2016-06-06T20:12:49.661Z,1014.1
2016-06-06T20:13:49.727Z,1014.1
2016-06-06T20:14:49.761Z,1014.09
2016-06-06T20:15:49.825Z,1014.08
2016-06-06T20:16:49.875Z,1014.11
2016-06-06T20:17:49.925Z,1014.09
2016-06-06T20:18:49.975Z,1014.1
2016-06-06T20:19:50.024Z,1014.09
2016-06-06T20:20:50.090Z,1014.12
2016-06-06T20:21:50.139Z,1014.09
2016-06-06T20:22:50.188Z,1014.12
2016-06-06T20:23:50.238Z,1014.08
2016-06-06T20:24:50.304Z,1014.12
2016-06-06T20:25:50.337Z,1014.1
2016-06-06T20:26:50.402Z,1014.08
2016-06-06T20:27:50.452Z,1014.08
2016-06-06T20:28:50.502Z,1014.06
2016-06-06T20:29:50.551Z,1014.08
2016-06-06T20:30:50.601Z,1014.11
2016-06-06T20:31:50.651Z,1014.08
2016-06-06T20:32:50.701Z,1014.11
2016-06-06T20:33:50.750Z,1014.13
2016-06-06T20:34:50.831Z,1014.14
2016-06-06T20:35:50.864Z,1014.1
2016-06-06T20:36:50.914Z,1014.12
2016-06-06T20:37:50.964Z,1014.18
2016-06-06T20:38:51.012Z,1014.14
2016-06-06T20:39:51.078Z,1014.11
2016-06-06T20:40:51.128Z,1014.1
2016-06-06T20:41:51.178Z,1014.12
2016-06-06T20:42:51.227Z,1014.15
2016-06-06T20:43:51.276Z,1014.12
2016-06-06T20:44:51.325Z,1014.15
2016-06-06T20:45:51.375Z,1014.18
2016-06-06T20:46:51.441Z,1014.16
2016-06-06T20:47:51.537Z,1014.16
2016-06-06T20:48:51.539Z,1014.15